Time;durP1;ratioP1;P1;durP2;ratioP2;P2;SDS_P1;SDS_P2;PMS_P1;PMS_P2;Temp;Humidity;BMP_temperature;BMP_pressure;BME280_temperature;BME280_humidity;BME280_pressure;Samples;Min_cycle;Max_cycle;Signal;HPM_P1;HPM_P2
2021/03/13 00:54:42;;;;;;;186.23;117.80;;;179.40;2252.80;;;;;;4827366;29;20041;-83
2021/03/13 00:58:00;;;;;;;180.35;114.22;;;179.40;2252.80;;;;;;4806336;29;20042;-84
2021/03/13 01:05:14;;;;;;;228.65;130.90;;;179.40;2252.80;;;;;;4808025;29;20073;-84
2021/03/13 01:08:57;;;;;;;211.30;121.47;;;179.40;2252.80;;;;;;4805101;29;20069;-83
2021/03/13 01:12:22;;;;;;;177.35;110.78;;;179.50;2252.80;;;;;;4795728;29;20107;-84
2021/03/13 01:22:25;;;;;;;254.73;146.38;;;179.50;2252.80;;;;;;4805715;29;20058;-83
2021/03/13 01:29:41;;;;;;;207.50;116.60;;;179.50;2252.80;;;;;;4897513;29;20101;-85
2021/03/13 01:33:22;;;;;;;131.52;78.07;;;179.60;2252.80;;;;;;4900925;29;20033;-83
2021/03/13 01:43:06;;;;;;;175.20;100.15;;;179.70;2252.80;;;;;;4901603;29;20168;-84
2021/03/13 01:46:26;;;;;;;165.65;101.13;;;179.70;2252.80;;;;;;4900883;29;20043;-84
2021/03/13 01:50:01;;;;;;;138.60;83.93;;;179.60;2252.80;;;;;;4900835;29;20066;-83
2021/03/13 01:53:29;;;;;;;75.13;45.15;;;179.70;2252.80;;;;;;4900119;29;20028;-83
2021/03/13 01:56:57;;;;;;;52.85;34.53;;;179.80;2252.80;;;;;;4900379;29;20036;-84
2021/03/13 02:00:33;;;;;;;55.17;33.97;;;179.80;2252.80;;;;;;4902276;29;20047;-85
2021/03/13 02:10:53;;;;;;;58.00;39.42;;;179.90;2252.80;;;;;;4935734;29;20039;-83
2021/03/13 02:45:48;;;;;;;39.42;25.67;;;179.60;2252.80;;;;;;4946603;29;20445;-86
2021/03/13 02:52:11;;;;;;;35.58;21.30;;;179.60;2252.80;;;;;;4936842;29;20130;-85
2021/03/13 02:58:40;;;;;;;64.95;40.30;;;179.80;2252.80;;;;;;4910453;29;20079;-86
2021/03/13 03:01:51;;;;;;;61.63;37.53;;;179.60;2252.80;;;;;;4940409;28;20153;-84
2021/03/13 03:12:14;;;;;;;65.88;43.40;;;179.30;2252.80;;;;;;4977249;28;20041;-83
2021/03/13 04:19:31;;;;;;;87.05;57.58;;;154.20;2252.80;;;;;;4985765;28;20057;-81
2021/03/13 04:23:05;;;;;;;85.00;56.33;;;154.30;2252.80;;;;;;4975913;28;20035;-82
2021/03/13 04:26:27;;;;;;;80.45;53.90;;;154.30;2252.80;;;;;;4923339;29;20047;-81
2021/03/13 04:29:42;;;;;;;94.00;59.80;;;154.20;2252.80;;;;;;4953081;28;20384;-80
2021/03/13 04:32:46;;;;;;;100.10;63.53;;;154.40;2252.80;;;;;;4984342;28;20388;-80
2021/03/13 04:35:57;;;;;;;96.53;60.88;;;154.20;2252.80;;;;;;4967099;28;20453;-80
2021/03/13 04:39:07;;;;;;;92.80;59.88;;;154.20;2252.80;;;;;;4981222;28;20062;-80
2021/03/13 04:42:01;;;;;;;101.57;64.82;;;154.40;2252.80;;;;;;4982744;28;20354;-82
2021/03/13 04:45:25;;;;;;;82.15;53.20;;;154.40;2252.80;;;;;;4959374;29;20114;-81
2021/03/13 04:49:06;;;;;;;82.88;49.58;;;154.20;2252.80;;;;;;4979340;28;20027;-80
2021/03/13 04:51:59;;;;;;;;;;;154.10;2252.80;;;;;;4941802;28;20046;-81
2021/03/13 05:26:30;;;;;;;148.82;77.88;;;179.20;2252.80;;;;;;4897383;29;20056;-83
2021/03/13 05:33:33;;;;;;;120.65;85.22;;;154.30;2252.80;;;;;;4868263;29;20044;-82
2021/03/13 05:36:59;;;;;;;122.88;73.90;;;154.30;2252.80;;;;;;4777524;30;20122;-82
2021/03/13 05:43:49;;;;;;;149.93;92.90;;;179.20;2252.80;;;;;;4867751;29;20452;-82
2021/03/13 05:47:09;;;;;;;174.73;100.35;;;179.30;2252.80;;;;;;4864546;29;20038;-83
2021/03/13 05:51:09;;;;;;;164.55;95.38;;;179.40;2252.80;;;;;;4788537;29;20039;-82
2021/03/13 05:54:30;;;;;;;140.48;86.88;;;179.40;2252.80;;;;;;4786880;29;20518;-83
2021/03/13 05:57:21;;;;;;;131.52;84.05;;;179.50;2252.80;;;;;;4728632;30;20029;-82
2021/03/13 06:03:27;;;;;;;188.27;101.35;;;179.50;2252.80;;;;;;4760924;30;20047;-82
2021/03/13 06:10:24;;;;;;;172.57;102.82;;;179.40;2252.80;;;;;;4792202;30;20042;-82
2021/03/13 06:34:11;;;;;;;216.15;127.50;;;179.60;2252.80;;;;;;4773470;30;20460;-82
2021/03/13 06:37:58;;;;;;;215.23;129.00;;;179.50;2252.80;;;;;;4776175;29;20088;-83
2021/03/13 06:41:23;;;;;;;206.60;124.47;;;179.60;2252.80;;;;;;4742536;29;20501;-83
2021/03/13 06:45:01;;;;;;;172.40;99.93;;;179.40;2252.80;;;;;;4780029;29;20561;-83
2021/03/13 06:48:11;;;;;;;87.50;52.97;;;179.60;2252.80;;;;;;4807688;29;20553;-83
2021/03/13 06:51:20;;;;;;;73.38;46.45;;;179.60;2252.80;;;;;;4813908;29;20536;-81
2021/03/13 06:54:41;;;;;;;56.88;38.38;;;179.50;2252.80;;;;;;4844786;29;20113;-81
2021/03/13 06:58:14;;;;;;;102.55;55.17;;;179.50;2252.80;;;;;;4940484;29;20032;-80
2021/03/13 07:04:41;;;;;;;82.05;52.70;;;179.40;2252.80;;;;;;4963022;26;20076;-80
2021/03/13 07:14:54;;;;;;;72.28;50.60;;;179.70;2252.80;;;;;;5006118;28;20135;-81
2021/03/13 07:18:20;;;;;;;70.45;48.50;;;179.70;2252.80;;;;;;4950561;29;20110;-82
2021/03/13 07:22:03;;;;;;;38.83;28.95;;;179.70;2252.80;;;;;;4952945;29;20134;-81
2021/03/13 07:25:18;;;;;;;41.35;31.95;;;179.70;2252.80;;;;;;4917514;29;20076;-80
2021/03/13 07:29:02;;;;;;;49.83;44.72;;;179.80;2252.80;;;;;;4857509;29;20037;-81
2021/03/13 08:04:09;;;;;;;56.67;45.15;;;179.70;2252.80;;;;;;4934589;29;20043;-81
2021/03/13 08:17:12;;;;;;;124.80;85.50;;;179.80;2252.80;;;;;;4968056;29;20050;-82
2021/03/13 08:24:01;;;;;;;74.03;55.95;;;179.80;2252.80;;;;;;4975011;29;20038;-81
2021/03/13 08:34:11;;;;;;;103.78;83.40;;;180.00;2252.80;;;;;;4879752;29;20567;-82
2021/03/13 08:37:22;;;;;;;109.05;83.88;;;180.10;2252.80;;;;;;4823669;29;20034;-82
2021/03/13 08:39:51;;;;;;;116.90;85.85;;;204.80;2252.80;;;;;;4824306;29;20125;-83
2021/03/13 08:42:37;;;;;;;112.28;85.45;;;204.90;2252.80;;;;;;4914159;29;20072;-83
2021/03/13 08:45:14;;;;;;;103.10;86.72;;;205.00;2252.80;;;;;;4899589;29;20402;-83
2021/03/13 08:47:53;;;;;;;121.18;95.47;;;205.10;2252.80;;;;;;4914710;29;20058;-82
2021/03/13 08:50:46;;;;;;;70.72;53.47;;;205.10;2252.80;;;;;;4933668;29;20106;-84
2021/03/13 08:53:29;;;;;;;;;;;205.20;2252.80;;;;;;4935129;29;20512;-83
2021/03/13 08:55:54;;;;;;;47.28;30.05;;;205.30;2252.80;;;;;;4918657;29;20022;-81
2021/03/13 08:58:40;;;;;;;49.08;34.60;;;205.40;2252.80;;;;;;4934631;29;20031;-80
2021/03/13 09:01:16;;;;;;;28.85;22.00;;;205.60;2252.80;;;;;;4918753;29;20478;-80
2021/03/13 09:03:50;;;;;;;29.73;24.48;;;205.70;2252.80;;;;;;4934004;29;20115;-79
2021/03/13 09:06:23;;;;;;;30.27;24.88;;;230.40;2252.80;;;;;;4934422;29;20023;-78
2021/03/13 09:08:48;;;;;;;;;;;230.50;2252.80;;;;;;4935001;29;20134;-79
2021/03/13 09:11:36;;;;;;;34.78;23.95;;;230.60;2252.80;;;;;;4919349;29;19997;-83
2021/03/13 09:14:03;;;;;;;37.25;23.23;;;230.70;2252.80;;;;;;4932284;28;20050;-81
2021/03/13 09:16:40;;;;;;;62.00;35.50;;;230.70;2252.80;;;;;;4957604;28;20031;-80
2021/03/13 09:19:12;;;;;;;23.05;16.15;;;230.80;2252.80;;;;;;4957811;28;20023;-80
2021/03/13 09:21:47;;;;;;;;;;;230.90;2252.80;;;;;;4957747;28;20031;-82
2021/03/13 09:24:22;;;;;;;23.20;15.20;;;230.90;2252.80;;;;;;4954557;28;19922;-84
2021/03/13 09:26:54;;;;;;;25.60;18.75;;;230.90;2252.80;;;;;;4968547;28;20392;-81
2021/03/13 09:29:33;;;;;;;30.50;21.63;;;231.10;2252.80;;;;;;4944847;28;20027;-86
2021/03/13 09:32:07;;;;;;;24.60;17.92;;;231.20;2252.80;;;;;;4955070;28;20503;-78
2021/03/13 09:34:41;;;;;;;20.80;14.35;;;231.30;2252.80;;;;;;4955472;28;20069;-85
2021/03/13 09:37:14;;;;;;;21.88;15.38;;;231.30;2252.80;;;;;;4957775;28;20416;-87
2021/03/13 09:39:42;;;;;;;21.15;16.48;;;256.10;2252.80;;;;;;4944339;29;20028;-86
2021/03/13 09:42:27;;;;;;;22.40;18.30;;;256.00;2252.80;;;;;;4955004;29;20070;-86
2021/03/13 09:45:21;;;;;;;25.15;18.58;;;256.10;2252.80;;;;;;4937033;29;20039;-85
2021/03/13 09:48:02;;;;;;;23.27;16.73;;;256.40;2252.80;;;;;;4936136;29;20043;-85
2021/03/13 09:50:35;;;;;;;19.63;16.58;;;256.50;2252.80;;;;;;4938197;29;20041;-85
2021/03/13 09:53:06;;;;;;;24.10;18.42;;;256.60;2252.80;;;;;;4938525;29;20032;-88
2021/03/13 09:55:33;;;;;;;22.45;17.80;;;256.70;2252.80;;;;;;4967194;28;20066;-86
2021/03/13 09:58:00;;;;;;;24.38;18.88;;;256.80;2252.80;;;;;;4958303;28;20114;-87
2021/03/13 10:00:29;;;;;;;31.25;25.30;;;281.60;2278.40;;;;;;4974166;28;20027;-87
2021/03/13 10:02:56;;;;;;;32.00;25.00;;;282.00;2278.40;;;;;;4960498;28;20027;-83
2021/03/13 10:05:26;;;;;;;30.58;24.00;;;282.10;2278.40;;;;;;4979094;28;20035;-85
2021/03/13 10:07:53;;;;;;;29.75;25.17;;;282.20;2278.40;;;;;;4978744;28;20027;-85
2021/03/13 10:10:22;;;;;;;37.08;30.70;;;282.00;2278.40;;;;;;4961074;28;20077;-84
2021/03/13 10:12:50;;;;;;;37.47;28.13;;;282.20;2278.40;;;;;;4960959;28;20112;-84
2021/03/13 10:15:22;;;;;;;31.60;25.58;;;282.20;2278.40;;;;;;4978478;28;20037;-84
2021/03/13 10:18:14;;;;;;;27.38;21.83;;;282.40;2278.40;;;;;;4978148;28;20174;-84
2021/03/13 10:20:47;;;;;;;24.80;21.20;;;282.40;2278.40;;;;;;4978269;28;20027;-87
2021/03/13 10:23:24;;;;;;;29.00;25.45;;;282.20;2278.40;;;;;;4960822;28;20042;-86
2021/03/13 10:26:00;;;;;;;26.35;21.80;;;282.30;2278.40;;;;;;4960805;28;20031;-86
2021/03/13 10:28:33;;;;;;;25.10;19.83;;;282.50;2278.40;;;;;;4961284;28;20027;-83
2021/03/13 10:31:36;;;;;;;21.30;16.95;;;307.20;2304.00;;;;;;4961455;28;20050;-87
2021/03/13 10:34:03;;;;;;;30.10;25.42;;;282.50;2278.40;;;;;;4960833;28;20030;-87
2021/03/13 10:36:45;;;;;;;21.40;18.52;;;307.30;2304.00;;;;;;4961328;28;20035;-86
2021/03/13 10:39:11;;;;;;;27.48;21.10;;;307.40;2304.00;;;;;;4960808;28;20023;-86
2021/03/13 10:41:48;;;;;;;42.25;37.45;;;307.50;2304.00;;;;;;4960774;28;20521;-87
2021/03/13 10:44:17;;;;;;;31.13;24.75;;;307.40;2304.00;;;;;;4961040;28;20388;-84
2021/03/13 10:46:42;;;;;;;20.65;18.40;;;307.40;2304.00;;;;;;4978042;28;20026;-84
2021/03/13 10:49:08;;;;;;;22.55;18.52;;;307.30;2304.00;;;;;;4960679;28;20027;-85
2021/03/13 10:51:42;;;;;;;24.20;20.95;;;307.30;2304.00;;;;;;4960274;28;20038;-85
2021/03/13 10:54:27;;;;;;;22.27;18.88;;;307.30;2304.00;;;;;;4976636;28;20113;-86
2021/03/13 10:56:53;;;;;;;23.67;19.45;;;307.30;2304.00;;;;;;4941893;29;20050;-86
2021/03/13 10:59:33;;;;;;;22.88;17.23;;;307.30;2304.00;;;;;;4957677;29;20032;-86
2021/03/13 11:01:59;;;;;;;21.30;16.17;;;307.30;2304.00;;;;;;4958435;29;20027;-86
2021/03/13 11:04:25;;;;;;;29.17;21.17;;;307.30;2304.00;;;;;;4941216;29;20397;-86
2021/03/13 11:06:54;;;;;;;28.30;21.40;;;307.30;2304.00;;;;;;4958189;29;20023;-85
2021/03/13 11:09:24;;;;;;;28.15;20.80;;;307.30;2304.00;;;;;;4941455;29;20370;-84
2021/03/13 11:11:50;;;;;;;27.27;21.30;;;307.20;2304.00;;;;;;4941160;29;20065;-87
2021/03/13 11:14:16;;;;;;;23.23;17.73;;;282.50;2278.40;;;;;;4957289;28;20157;-85
2021/03/13 11:16:44;;;;;;;24.77;20.55;;;307.20;2304.00;;;;;;4941043;29;20031;-81
2021/03/13 11:19:11;;;;;;;24.17;18.65;;;307.30;2304.00;;;;;;4956792;29;20035;-84
2021/03/13 11:21:37;;;;;;;20.52;15.50;;;307.20;2304.00;;;;;;4963798;28;20054;-84
2021/03/13 11:24:04;;;;;;;17.17;14.10;;;282.50;2278.40;;;;;;4959986;28;20057;-86
2021/03/13 11:26:29;;;;;;;27.65;20.75;;;282.50;2278.40;;;;;;4958671;28;20033;-90
2021/03/13 11:28:55;;;;;;;31.77;25.10;;;282.50;2278.40;;;;;;4960077;28;20023;-87
2021/03/13 11:31:21;;;;;;;36.17;28.50;;;282.40;2278.40;;;;;;4977263;28;20135;-86
2021/03/13 11:33:48;;;;;;;200.20;114.13;;;282.50;2278.40;;;;;;4960115;28;20097;-87
2021/03/13 11:36:17;;;;;;;34.95;25.70;;;282.50;2278.40;;;;;;4958863;28;20034;-87
2021/03/13 11:38:43;;;;;;;53.00;41.83;;;282.50;2278.40;;;;;;4959861;28;20062;-86
2021/03/13 11:41:12;;;;;;;49.05;35.08;;;282.50;2278.40;;;;;;4975275;28;20027;-88
2021/03/13 11:43:42;;;;;;;71.50;51.13;;;307.20;2304.00;;;;;;4973770;28;20049;-86
2021/03/13 11:46:09;;;;;;;59.25;43.33;;;307.40;2304.00;;;;;;4958355;28;20027;-85
2021/03/13 11:48:38;;;;;;;28.27;21.48;;;308.00;2304.00;;;;;;4956767;28;20385;-87
2021/03/13 11:51:04;;;;;;;20.85;16.52;;;333.10;2329.60;;;;;;4975402;28;20022;-87
2021/03/13 11:53:30;;;;;;;18.83;16.27;;;358.40;2329.60;;;;;;4958378;28;20502;-87
2021/03/13 11:55:56;;;;;;;20.30;16.92;;;358.70;2329.60;;;;;;4974864;28;20023;-86
2021/03/13 11:58:22;;;;;;;18.00;14.73;;;358.90;2329.60;;;;;;4959209;28;20085;-90
2021/03/13 12:00:48;;;;;;;15.23;12.95;;;359.30;2329.60;;;;;;4958527;28;20027;-84
2021/03/13 12:03:14;;;;;;;21.40;17.77;;;384.20;2329.60;;;;;;4958994;28;20492;-85
2021/03/13 12:05:39;;;;;;;23.83;18.40;;;384.10;2329.60;;;;;;4959119;28;20164;-85
2021/03/13 12:08:06;;;;;;;33.88;23.73;;;384.10;2329.60;;;;;;4959647;28;20054;-84
2021/03/13 12:10:32;;;;;;;18.20;14.15;;;384.30;2329.60;;;;;;4952447;29;20023;-82
2021/03/13 12:12:57;;;;;;;25.42;17.83;;;384.30;2329.60;;;;;;4955232;28;20042;-89
2021/03/13 12:15:23;;;;;;;18.52;15.13;;;384.40;2329.60;;;;;;4941720;29;20031;-90
2021/03/13 12:17:59;;;;;;;21.02;16.38;;;384.40;2329.60;;;;;;4947830;28;20030;-89
2021/03/13 12:20:26;;;;;;;19.02;15.35;;;384.80;2329.60;;;;;;4953075;28;20497;-89
2021/03/13 12:22:53;;;;;;;12.55;10.25;;;384.90;2329.60;;;;;;4956087;28;20026;-83
2021/03/13 12:25:19;;;;;;;16.13;12.93;;;409.70;2252.80;;;;;;4975815;28;20118;-83
2021/03/13 12:27:45;;;;;;;19.75;15.30;;;410.00;2329.60;;;;;;4957246;28;20061;-82
2021/03/13 12:30:14;;;;;;;17.15;12.65;;;410.20;2329.60;;;;;;4958034;28;20121;-83
2021/03/13 12:32:41;;;;;;;22.13;17.48;;;410.40;2227.20;;;;;;4958054;28;20031;-84
2021/03/13 12:35:09;;;;;;;54.60;38.50;;;410.50;2201.60;;;;;;4958474;28;20121;-81
2021/03/13 12:37:37;;;;;;;58.97;38.85;;;410.50;2048.00;;;;;;4957838;28;20057;-84
2021/03/13 12:40:08;;;;;;;44.78;29.92;;;410.30;2150.40;;;;;;4975850;28;20050;-85
2021/03/13 12:42:34;;;;;;;23.90;16.05;;;410.20;2048.00;;;;;;4958816;28;20469;-85
2021/03/13 12:45:00;;;;;;;28.45;22.20;;;409.80;2150.40;;;;;;4958716;28;20473;-84
2021/03/13 12:47:26;;;;;;;28.88;20.20;;;410.10;2150.40;;;;;;4977483;28;20031;-86
2021/03/13 12:49:51;;;;;;;29.15;24.08;;;410.30;2201.60;;;;;;4958729;28;20494;-82
2021/03/13 12:52:17;;;;;;;23.10;18.48;;;410.30;2124.80;;;;;;4958404;28;20035;-85
2021/03/13 12:54:43;;;;;;;21.77;18.00;;;410.40;1996.80;;;;;;4958737;28;20495;-87
2021/03/13 12:57:09;;;;;;;13.90;11.57;;;410.40;2099.20;;;;;;4958208;28;20058;-84
2021/03/13 12:59:35;;;;;;;27.42;20.30;;;435.30;2073.60;;;;;;4958179;28;20042;-87
2021/03/13 13:02:01;;;;;;;22.77;17.67;;;435.60;2073.60;;;;;;4958743;28;20031;-83
2021/03/13 13:04:29;;;;;;;16.98;12.52;;;435.60;2099.20;;;;;;4975241;28;20394;-87
2021/03/13 13:06:55;;;;;;;14.57;10.75;;;435.70;1996.80;;;;;;4958314;28;20087;-86
2021/03/13 13:09:21;;;;;;;13.02;10.75;;;435.30;1945.60;;;;;;4958534;28;20147;-85
2021/03/13 13:11:47;;;;;;;8.93;7.03;;;435.20;1945.60;;;;;;4957925;28;20240;-87
2021/03/13 13:14:12;;;;;;;11.55;9.00;;;410.20;1920.00;;;;;;4958160;28;20057;-86
2021/03/13 13:16:38;;;;;;;10.88;8.23;;;410.50;1971.20;;;;;;4958365;28;20113;-84
2021/03/13 13:19:04;;;;;;;20.42;15.88;;;435.30;2022.40;;;;;;4953458;28;20031;-80
2021/03/13 13:21:31;;;;;;;22.67;16.80;;;435.80;2073.60;;;;;;4950046;29;20039;-83
2021/03/13 13:23:58;;;;;;;30.98;21.92;;;435.80;1894.40;;;;;;4943875;28;20035;-84
2021/03/13 13:26:24;;;;;;;18.45;13.45;;;435.80;1971.20;;;;;;4958315;28;20382;-84
2021/03/13 13:28:49;;;;;;;50.63;35.10;;;436.00;1971.20;;;;;;4950147;28;20086;-86
2021/03/13 13:31:15;;;;;;;30.83;22.83;;;436.10;1996.80;;;;;;4949928;28;20055;-86
2021/03/13 13:33:41;;;;;;;11.18;9.30;;;460.80;2048.00;;;;;;4959354;28;20433;-81
2021/03/13 13:36:08;;;;;;;28.55;22.33;;;436.10;1868.80;;;;;;4938482;29;20118;-84
2021/03/13 13:38:33;;;;;;;31.42;22.38;;;460.90;2048.00;;;;;;4972956;28;20038;-86
2021/03/13 13:41:03;;;;;;;24.77;17.58;;;461.00;2022.40;;;;;;4961131;28;20030;-81
2021/03/13 13:43:29;;;;;;;18.88;15.95;;;461.10;1996.80;;;;;;4960636;28;20495;-79
2021/03/13 13:45:55;;;;;;;15.90;10.75;;;461.10;2048.00;;;;;;4961496;28;20057;-81
2021/03/13 13:48:21;;;;;;;12.50;9.07;;;460.80;1920.00;;;;;;4978622;28;20062;-81
2021/03/13 13:50:47;;;;;;;13.18;9.55;;;435.80;1894.40;;;;;;4961326;28;20054;-82
2021/03/13 13:53:13;;;;;;;15.68;10.57;;;435.80;1920.00;;;;;;4961976;28;20043;-84
2021/03/13 13:55:41;;;;;;;23.75;17.50;;;435.80;1920.00;;;;;;4961180;28;20026;-80
2021/03/13 13:58:07;;;;;;;22.52;17.30;;;435.90;1971.20;;;;;;4961301;28;20185;-77
2021/03/13 14:00:32;;;;;;;18.50;11.90;;;460.80;2022.40;;;;;;4961373;28;20516;-82
2021/03/13 14:02:58;;;;;;;18.98;13.35;;;435.80;1971.20;;;;;;4961199;28;20366;-80
2021/03/13 14:05:25;;;;;;;16.17;13.43;;;436.10;2048.00;;;;;;4961186;28;20148;-84
2021/03/13 14:07:51;;;;;;;22.48;16.35;;;460.80;1971.20;;;;;;4961125;28;20038;-81
2021/03/13 14:10:17;;;;;;;16.42;12.93;;;436.10;1996.80;;;;;;4961362;28;20030;-82
2021/03/13 14:12:44;;;;;;;30.30;18.88;;;436.10;2022.40;;;;;;4960746;28;20053;-82
2021/03/13 14:15:11;;;;;;;29.77;22.10;;;436.10;2099.20;;;;;;4960902;28;20479;-85
2021/03/13 14:17:36;;;;;;;32.83;20.10;;;460.80;2022.40;;;;;;4977922;28;20027;-84
2021/03/13 14:20:04;;;;;;;30.88;22.33;;;436.10;1996.80;;;;;;4978273;28;20488;-83
2021/03/13 14:22:30;;;;;;;20.83;18.38;;;436.00;1894.40;;;;;;4957636;28;20074;-84
2021/03/13 14:24:56;;;;;;;36.65;26.05;;;435.90;2022.40;;;;;;4957566;28;20038;-82
2021/03/13 14:27:22;;;;;;;32.35;23.92;;;435.80;2048.00;;;;;;4959873;28;20031;-84
2021/03/13 14:29:48;;;;;;;28.05;22.80;;;435.80;2022.40;;;;;;4959712;28;20022;-84
2021/03/13 14:32:14;;;;;;;21.27;17.20;;;435.80;1971.20;;;;;;4961122;28;20503;-86
2021/03/13 14:34:41;;;;;;;24.27;20.23;;;435.60;1996.80;;;;;;4961004;28;20031;-86
2021/03/13 14:37:07;;;;;;;22.98;19.63;;;435.50;2073.60;;;;;;4960939;28;20027;-86
2021/03/13 14:39:33;;;;;;;29.15;22.27;;;435.30;2099.20;;;;;;4961129;28;20077;-87
2021/03/13 14:42:00;;;;;;;23.02;16.75;;;410.50;2099.20;;;;;;4978349;28;20094;-87
2021/03/13 14:44:27;;;;;;;25.13;20.02;;;410.30;2124.80;;;;;;4960777;28;20138;-87
2021/03/13 14:46:54;;;;;;;18.08;13.63;;;410.20;2150.40;;;;;;4961074;28;20027;-88
2021/03/13 14:49:20;;;;;;;13.75;10.32;;;409.70;2150.40;;;;;;4978233;28;20023;-87
2021/03/13 14:51:48;;;;;;;26.05;20.00;;;384.90;2150.40;;;;;;4960518;28;20029;-88
2021/03/13 14:54:16;;;;;;;61.67;39.00;;;384.90;2227.20;;;;;;4961026;28;20031;-89
2021/03/13 14:56:43;;;;;;;25.15;18.30;;;384.60;2304.00;;;;;;4960806;28;20031;-88
2021/03/13 14:59:16;;;;;;;19.05;14.80;;;384.30;2278.40;;;;;;4977975;28;20027;-87
2021/03/13 15:01:43;;;;;;;26.27;17.00;;;384.40;2252.80;;;;;;4960735;28;20023;-90
2021/03/13 15:04:09;;;;;;;28.95;17.98;;;384.00;2278.40;;;;;;4960317;28;20066;-87
2021/03/13 15:06:35;;;;;;;23.17;17.92;;;359.30;2304.00;;;;;;4960750;28;20125;-87
2021/03/13 15:09:02;;;;;;;23.55;18.23;;;359.20;2329.60;;;;;;4960764;28;20030;-87
2021/03/13 15:11:28;;;;;;;23.88;16.73;;;359.20;2329.60;;;;;;4960510;28;20027;-89
2021/03/13 15:13:57;;;;;;;23.52;18.80;;;359.10;2329.60;;;;;;4960599;28;20051;-86
2021/03/13 15:16:23;;;;;;;29.92;25.20;;;359.00;2329.60;;;;;;4960843;28;20061;-90
2021/03/13 15:18:49;;;;;;;18.20;14.93;;;359.00;2329.60;;;;;;4960611;28;20051;-87
2021/03/13 15:21:15;;;;;;;26.85;18.85;;;358.90;2329.60;;;;;;4960768;28;20031;-88
2021/03/13 15:23:41;;;;;;;25.60;19.38;;;358.80;2329.60;;;;;;4959434;28;20093;-89
2021/03/13 15:26:07;;;;;;;21.70;17.45;;;358.80;2329.60;;;;;;4960520;28;20030;-87
2021/03/13 15:28:35;;;;;;;21.45;18.20;;;358.70;2329.60;;;;;;4959254;28;20117;-89
2021/03/13 15:31:01;;;;;;;21.50;15.75;;;358.70;2329.60;;;;;;4960167;28;20038;-89
2021/03/13 15:33:27;;;;;;;19.73;15.77;;;358.70;2329.60;;;;;;4960157;28;20071;-88
2021/03/13 15:35:53;;;;;;;22.48;19.65;;;358.60;2329.60;;;;;;4960318;28;20044;-88
2021/03/13 15:38:53;;;;;;;28.75;20.02;;;358.60;2329.60;;;;;;4960536;28;20061;-92
2021/03/13 15:41:24;;;;;;;39.20;25.10;;;358.50;2329.60;;;;;;4976981;28;20154;-91
2021/03/13 15:43:50;;;;;;;28.42;19.73;;;358.50;2329.60;;;;;;4960220;28;20034;-87
2021/03/13 15:46:16;;;;;;;31.88;25.08;;;358.40;2329.60;;;;;;4976836;28;20093;-84
2021/03/13 15:48:47;;;;;;;34.05;26.02;;;333.70;2329.60;;;;;;4975574;28;20473;-86
2021/03/13 15:51:14;;;;;;;31.88;25.02;;;358.40;2329.60;;;;;;4956586;28;20158;-84
2021/03/13 15:53:40;;;;;;;31.70;24.45;;;333.70;2329.60;;;;;;4953650;28;20027;-84
2021/03/13 15:56:07;;;;;;;34.42;24.58;;;333.60;2329.60;;;;;;4959636;28;20034;-89
2021/03/13 15:58:33;;;;;;;39.40;28.73;;;333.60;2329.60;;;;;;4959128;28;20026;-86
2021/03/13 16:00:59;;;;;;;38.72;27.27;;;333.50;2329.60;;;;;;4957159;28;20098;-88
2021/03/13 16:03:26;;;;;;;46.30;34.00;;;333.40;2329.60;;;;;;4959100;28;20031;-84
2021/03/13 16:05:52;;;;;;;36.83;26.35;;;333.40;2329.60;;;;;;4958929;28;20523;-87
2021/03/13 16:08:18;;;;;;;44.40;31.25;;;333.40;2329.60;;;;;;4959552;28;20034;-86
2021/03/13 16:10:44;;;;;;;46.55;35.45;;;333.40;2329.60;;;;;;4959696;28;20023;-87
2021/03/13 16:13:10;;;;;;;58.47;41.17;;;333.30;2329.60;;;;;;4959061;28;20508;-87
2021/03/13 16:15:36;;;;;;;50.28;35.85;;;333.30;2329.60;;;;;;4959156;28;20027;-86
2021/03/13 16:18:01;;;;;;;71.25;48.88;;;333.20;2329.60;;;;;;4976980;28;20388;-87
2021/03/13 16:20:27;;;;;;;71.85;50.42;;;333.20;2329.60;;;;;;4959049;28;20026;-85
2021/03/13 16:22:53;;;;;;;66.32;49.13;;;333.10;2329.60;;;;;;4959796;28;20043;-83
2021/03/13 16:25:19;;;;;;;72.03;49.75;;;333.20;2329.60;;;;;;4958843;28;20061;-85
2021/03/13 16:27:46;;;;;;;92.18;60.53;;;333.20;2329.60;;;;;;4956575;28;20531;-89
2021/03/13 16:30:13;;;;;;;113.10;72.85;;;333.10;2329.60;;;;;;4973720;28;20027;-86
2021/03/13 16:32:39;;;;;;;105.20;71.57;;;333.10;2329.60;;;;;;4958602;28;20034;-87
2021/03/13 16:35:07;;;;;;;122.00;76.85;;;332.90;2329.60;;;;;;4958210;28;20035;-87
2021/03/13 16:37:33;;;;;;;175.98;111.47;;;332.90;2329.60;;;;;;4959555;28;20039;-87
2021/03/13 16:39:59;;;;;;;179.88;113.53;;;332.80;2329.60;;;;;;4959030;28;20027;-88
2021/03/13 16:42:25;;;;;;;175.25;109.25;;;332.80;2329.60;;;;;;4958712;28;20027;-88
2021/03/13 16:44:51;;;;;;;168.52;104.30;;;308.00;2304.00;;;;;;4976253;28;20134;-86
2021/03/13 16:47:17;;;;;;;169.57;106.32;;;308.00;2304.00;;;;;;4958989;28;20070;-86
2021/03/13 16:49:42;;;;;;;164.80;103.90;;;308.00;2304.00;;;;;;4958866;28;20097;-86
2021/03/13 16:52:09;;;;;;;200.43;123.78;;;307.90;2304.00;;;;;;4957746;28;20461;-85
2021/03/13 16:54:35;;;;;;;213.13;134.23;;;307.80;2304.00;;;;;;4955009;29;20027;-88
2021/03/13 16:57:01;;;;;;;238.38;143.00;;;307.80;2304.00;;;;;;4955997;29;20110;-86
2021/03/13 16:59:27;;;;;;;275.40;170.43;;;307.80;2304.00;;;;;;4939265;29;20062;-87
2021/03/13 17:01:53;;;;;;;257.90;163.07;;;307.70;2304.00;;;;;;4939471;29;20437;-86
2021/03/13 17:04:19;;;;;;;220.10;146.35;;;307.70;2304.00;;;;;;4956580;29;20074;-87
2021/03/13 17:06:45;;;;;;;220.18;149.30;;;307.70;2304.00;;;;;;4939566;29;20031;-87
2021/03/13 17:09:11;;;;;;;225.18;152.50;;;307.60;2304.00;;;;;;4956705;29;20457;-87
2021/03/13 17:11:37;;;;;;;222.20;149.13;;;307.60;2304.00;;;;;;4938330;29;20030;-86
2021/03/13 17:14:03;;;;;;;214.18;127.70;;;307.40;2304.00;;;;;;4957512;29;20059;-87
2021/03/13 17:16:29;;;;;;;232.77;122.65;;;307.40;2304.00;;;;;;4941519;29;20031;-88
2021/03/13 17:18:55;;;;;;;207.68;119.05;;;307.40;2304.00;;;;;;4939496;29;20119;-87
2021/03/13 17:21:20;;;;;;;209.55;117.57;;;307.40;2304.00;;;;;;4939079;29;20030;-85
2021/03/13 17:23:47;;;;;;;186.05;102.57;;;307.30;2304.00;;;;;;4967328;28;20053;-86
2021/03/13 17:26:13;;;;;;;162.18;91.03;;;307.20;2304.00;;;;;;4958492;28;20031;-86
2021/03/13 17:28:38;;;;;;;175.27;96.15;;;307.20;2304.00;;;;;;4957432;28;20054;-85
2021/03/13 17:31:05;;;;;;;162.88;97.28;;;282.50;2278.40;;;;;;4975318;28;20031;-87
2021/03/13 17:33:31;;;;;;;191.48;112.85;;;282.50;2278.40;;;;;;4958305;28;20085;-86
2021/03/13 17:35:57;;;;;;;160.73;86.80;;;282.40;2278.40;;;;;;4958132;28;20035;-86
2021/03/13 17:38:22;;;;;;;282.83;177.73;;;282.30;2278.40;;;;;;4958839;28;20031;-88
2021/03/13 17:40:48;;;;;;;223.52;150.38;;;282.30;2278.40;;;;;;4976640;28;20057;-87
2021/03/13 17:43:14;;;;;;;394.95;270.95;;;282.20;2278.40;;;;;;4958347;28;20026;-87
2021/03/13 17:45:40;;;;;;;261.10;178.68;;;282.20;2278.40;;;;;;4957909;28;20097;-88
2021/03/13 17:48:06;;;;;;;325.65;209.90;;;282.20;2278.40;;;;;;4958120;28;20094;-88
2021/03/13 17:50:32;;;;;;;345.52;231.68;;;282.20;2278.40;;;;;;4958127;28;20023;-88
2021/03/13 17:52:58;;;;;;;295.52;217.23;;;282.00;2278.40;;;;;;4958091;28;20049;-89
2021/03/13 17:55:24;;;;;;;144.55;112.32;;;281.80;2278.40;;;;;;4958292;28;20182;-88
2021/03/13 17:57:50;;;;;;;139.18;106.00;;;281.60;2278.40;;;;;;4958907;28;20031;-88
2021/03/13 18:00:16;;;;;;;160.25;112.97;;;281.70;2278.40;;;;;;4958084;28;20027;-87
2021/03/13 18:02:42;;;;;;;206.88;138.73;;;256.80;2252.80;;;;;;4958794;28;20381;-88
2021/03/13 18:05:09;;;;;;;229.07;153.43;;;281.60;2278.40;;;;;;4957971;28;20065;-89
2021/03/13 18:07:35;;;;;;;226.25;151.00;;;256.90;2252.80;;;;;;4957859;28;20031;-88
2021/03/13 18:10:01;;;;;;;205.93;135.43;;;256.90;2252.80;;;;;;4958263;28;20539;-88
2021/03/13 18:12:27;;;;;;;193.75;128.27;;;256.90;2252.80;;;;;;4957934;28;20131;-90